Terminal Aerodrome Forecast
Issued by NWS

Current Version | Previous Version | Text Only | Print | Product List | Glossary On
Versions: 1 2 3 4 5 6 7 8 9 10 11 12
000
FTUS43 KOAX 251135
TAFSNY
TAF
KSNY 251135Z 2512/2612 31009KT P6SM SKC
     FM251600 05007KT P6SM SKC
     FM252000 14010KT P6SM SKC
     FM260200 22007KT P6SM SKC
     FM260700 29011KT P6SM SKC=

USA.gov is the U.S. government's official web portal to all federal, state and local government web resources and services.